Time;durP1;ratioP1;P1;durP2;ratioP2;P2;SDS_P1;SDS_P2;PMS_P1;PMS_P2;Temp;Humidity;BMP_temperature;BMP_pressure;BME280_temperature;BME280_humidity;BME280_pressure;Samples;Min_cycle;Max_cycle;Signal;HPM_P1;HPM_P2
2022/03/08 00:02:03;;;;;;;17.33;7.55;;;2.40;97.90;;;;;;5013687;28;20054;-59
2022/03/08 00:04:30;;;;;;;21.83;8.25;;;2.20;97.90;;;;;;5013818;28;20055;-60
2022/03/08 00:06:57;;;;;;;13.90;7.57;;;2.20;98.00;;;;;;4996936;28;20365;-60
2022/03/08 00:09:23;;;;;;;15.52;7.03;;;2.20;98.10;;;;;;5015002;28;20046;-60
2022/03/08 00:11:50;;;;;;;10.50;6.68;;;2.20;98.20;;;;;;5013210;28;20046;-60
2022/03/08 00:14:17;;;;;;;15.43;8.10;;;2.10;98.20;;;;;;5013743;28;20127;-60
2022/03/08 00:16:44;;;;;;;13.73;7.28;;;2.20;98.20;;;;;;5013108;28;20050;-61
2022/03/08 00:19:11;;;;;;;13.88;7.63;;;2.20;98.20;;;;;;5012216;28;20038;-60
2022/03/08 00:21:39;;;;;;;12.23;6.90;;;2.20;98.20;;;;;;5011261;28;20054;-60
2022/03/08 00:24:07;;;;;;;18.45;8.05;;;2.20;98.20;;;;;;5001268;28;20081;-61
2022/03/08 00:26:34;;;;;;;14.43;8.82;;;2.20;98.30;;;;;;4994599;28;20046;-60
2022/03/08 00:29:01;;;;;;;11.25;7.82;;;2.10;98.30;;;;;;4995438;28;20069;-60
2022/03/08 00:31:28;;;;;;;10.43;6.70;;;2.10;98.50;;;;;;5012692;28;20110;-59
2022/03/08 00:33:55;;;;;;;15.13;8.93;;;2.10;98.70;;;;;;5004111;28;20054;-59
2022/03/08 00:36:21;;;;;;;13.82;8.10;;;2.00;98.70;;;;;;4637055;28;10000618;-59
2022/03/08 00:38:48;;;;;;;10.13;7.03;;;2.00;98.50;;;;;;5015495;28;20042;-60
2022/03/08 00:41:16;;;;;;;20.33;8.00;;;2.00;98.60;;;;;;5014884;28;20077;-60
2022/03/08 00:43:42;;;;;;;15.40;7.32;;;2.00;98.70;;;;;;5013731;28;20046;-60
2022/03/08 00:46:09;;;;;;;19.08;8.75;;;1.90;98.70;;;;;;5013928;28;20069;-60
2022/03/08 00:48:36;;;;;;;14.65;7.55;;;1.90;98.80;;;;;;5013255;28;20054;-60
2022/03/08 00:51:03;;;;;;;21.05;9.02;;;1.90;98.80;;;;;;5012276;28;20073;-60
2022/03/08 00:53:30;;;;;;;14.20;7.93;;;1.90;98.90;;;;;;4996187;28;20109;-60
2022/03/08 00:55:56;;;;;;;12.27;8.52;;;1.80;99.20;;;;;;5013570;28;20093;-60
2022/03/08 00:58:24;;;;;;;13.27;8.20;;;1.80;99.10;;;;;;5012926;28;20074;-59
2022/03/08 01:00:50;;;;;;;12.32;7.45;;;1.80;99.10;;;;;;5017775;28;20485;-62
2022/03/08 01:03:18;;;;;;;15.70;9.20;;;1.70;99.20;;;;;;5011987;28;20042;-60
2022/03/08 01:05:45;;;;;;;20.33;9.00;;;1.70;99.30;;;;;;5013134;28;20072;-60
2022/03/08 01:08:13;;;;;;;15.13;9.00;;;1.70;99.30;;;;;;5012990;28;20081;-60
2022/03/08 01:10:40;;;;;;;16.58;9.70;;;1.70;99.40;;;;;;5012559;28;20042;-60
2022/03/08 01:13:07;;;;;;;17.25;9.70;;;1.70;99.30;;;;;;5012926;28;20049;-60
2022/03/08 01:15:34;;;;;;;14.13;8.27;;;1.70;99.30;;;;;;4996078;28;20050;-61
2022/03/08 01:18:00;;;;;;;15.77;8.65;;;1.70;99.20;;;;;;4996926;28;20057;-61
2022/03/08 01:20:27;;;;;;;15.13;9.88;;;1.70;99.50;;;;;;4996159;28;20085;-60
2022/03/08 01:22:54;;;;;;;15.63;9.35;;;1.70;99.20;;;;;;5013325;28;20046;-61
2022/03/08 01:25:22;;;;;;;14.68;8.63;;;1.70;99.20;;;;;;5012762;28;20047;-60
2022/03/08 01:27:49;;;;;;;15.93;9.10;;;1.70;99.50;;;;;;4996408;28;20046;-60
2022/03/08 01:30:17;;;;;;;20.77;9.65;;;1.70;99.20;;;;;;5013285;28;20065;-60
2022/03/08 01:32:43;;;;;;;23.40;8.65;;;1.70;99.30;;;;;;5012611;28;20053;-60
2022/03/08 01:35:11;;;;;;;13.18;8.07;;;1.70;99.30;;;;;;4976214;28;20154;-59
2022/03/08 01:37:38;;;;;;;15.55;9.10;;;1.70;99.30;;;;;;5011950;28;20046;-60
2022/03/08 01:40:05;;;;;;;13.95;8.90;;;1.60;99.30;;;;;;5012917;28;20077;-60
2022/03/08 01:42:32;;;;;;;12.50;8.43;;;1.60;99.30;;;;;;5012817;28;20081;-60
2022/03/08 01:44:59;;;;;;;22.05;9.07;;;1.60;99.40;;;;;;5013033;28;20038;-60
2022/03/08 01:47:26;;;;;;;16.67;8.77;;;1.60;99.40;;;;;;5006525;28;20050;-60
2022/03/08 01:49:53;;;;;;;13.07;8.00;;;1.60;99.30;;;;;;5012460;28;20057;-59
2022/03/08 01:52:22;;;;;;;16.30;9.27;;;1.60;99.30;;;;;;5001350;28;20055;-59
2022/03/08 01:54:49;;;;;;;18.77;10.90;;;1.70;99.40;;;;;;4984944;28;20050;-60
2022/03/08 01:57:16;;;;;;;16.70;9.18;;;1.60;99.40;;;;;;5013618;28;20053;-60
2022/03/08 01:59:43;;;;;;;18.48;10.95;;;1.60;99.40;;;;;;5012170;28;20054;-60
2022/03/08 02:02:10;;;;;;;18.40;10.60;;;1.60;99.40;;;;;;5012654;28;20417;-60
2022/03/08 02:04:37;;;;;;;21.73;9.32;;;1.50;99.30;;;;;;5012513;28;20073;-60
2022/03/08 02:07:04;;;;;;;16.42;10.30;;;1.50;99.20;;;;;;5013560;28;20038;-60
2022/03/08 02:09:31;;;;;;;26.77;10.13;;;1.50;99.20;;;;;;4996033;28;20054;-60
2022/03/08 02:11:58;;;;;;;15.68;9.50;;;1.50;99.30;;;;;;4995241;28;20054;-60
2022/03/08 02:14:26;;;;;;;21.25;11.13;;;1.50;99.20;;;;;;4996504;28;20086;-60
2022/03/08 02:16:53;;;;;;;20.25;10.43;;;1.40;99.20;;;;;;4996583;28;20050;-60
2022/03/08 02:19:20;;;;;;;24.63;10.88;;;1.40;99.20;;;;;;4996860;28;20039;-60
2022/03/08 02:21:46;;;;;;;21.42;10.07;;;1.60;99.30;;;;;;5011892;28;20058;-60
2022/03/08 02:24:13;;;;;;;23.98;10.73;;;1.40;99.20;;;;;;4996776;28;20046;-61
2022/03/08 02:26:40;;;;;;;21.10;10.55;;;1.40;99.30;;;;;;5012865;28;20030;-61
2022/03/08 02:29:08;;;;;;;17.48;10.05;;;1.40;99.30;;;;;;5013095;28;20058;-60
2022/03/08 02:31:35;;;;;;;18.50;10.02;;;1.90;99.40;;;;;;5012859;28;20058;-61
2022/03/08 02:34:02;;;;;;;16.80;10.02;;;1.40;99.20;;;;;;5013290;28;20089;-63
2022/03/08 02:36:32;;;;;;;19.98;10.88;;;1.30;99.30;;;;;;4992695;28;20046;-62
2022/03/08 02:38:59;;;;;;;21.08;11.13;;;1.30;99.30;;;;;;4994624;28;20109;-61
2022/03/08 02:41:26;;;;;;;20.92;11.60;;;1.30;99.30;;;;;;5013097;28;20062;-61
2022/03/08 02:43:53;;;;;;;20.42;10.18;;;1.20;99.30;;;;;;5013277;28;20073;-59
2022/03/08 02:46:19;;;;;;;18.63;10.43;;;1.30;99.40;;;;;;4996779;28;20117;-59
2022/03/08 02:48:46;;;;;;;19.08;9.93;;;1.30;99.40;;;;;;5012956;28;20102;-58
2022/03/08 02:51:13;;;;;;;19.80;11.15;;;1.20;99.30;;;;;;5012342;28;20078;-59
2022/03/08 02:53:41;;;;;;;21.70;11.40;;;1.20;99.40;;;;;;4994451;28;20073;-59
2022/03/08 02:56:08;;;;;;;23.00;11.10;;;1.20;99.60;;;;;;5011994;28;20497;-59
2022/03/08 02:58:34;;;;;;;20.35;10.55;;;1.20;99.30;;;;;;5011297;28;20033;-60
2022/03/08 03:01:01;;;;;;;24.08;12.05;;;1.20;99.40;;;;;;5012644;28;20070;-60
2022/03/08 03:03:28;;;;;;;20.73;11.43;;;1.20;99.40;;;;;;5010873;28;20050;-60
2022/03/08 03:05:55;;;;;;;20.70;12.65;;;1.20;99.40;;;;;;5011907;28;20070;-59
2022/03/08 03:08:22;;;;;;;21.92;10.15;;;1.20;99.50;;;;;;5012362;28;20031;-60
2022/03/08 03:10:49;;;;;;;18.52;11.77;;;1.20;99.50;;;;;;4996283;28;20081;-60
2022/03/08 03:13:16;;;;;;;18.10;10.57;;;1.10;99.50;;;;;;5016249;28;20046;-60
2022/03/08 03:15:43;;;;;;;19.35;10.88;;;1.10;99.50;;;;;;5018153;28;20058;-60
2022/03/08 03:18:10;;;;;;;25.92;10.25;;;1.10;99.50;;;;;;5017048;28;20073;-61
2022/03/08 03:20:37;;;;;;;17.02;10.45;;;1.10;99.50;;;;;;5002454;28;20051;-60
2022/03/08 03:23:03;;;;;;;19.63;11.50;;;1.10;99.50;;;;;;4977319;28;20026;-59
2022/03/08 03:25:30;;;;;;;17.90;10.68;;;1.10;99.70;;;;;;5017298;28;20042;-60
2022/03/08 03:27:57;;;;;;;20.00;11.45;;;1.00;99.60;;;;;;5017202;28;20070;-60
2022/03/08 03:30:24;;;;;;;22.23;11.13;;;1.00;99.80;;;;;;5017206;28;20085;-59
2022/03/08 03:32:51;;;;;;;25.75;11.63;;;1.00;99.80;;;;;;5014983;28;20062;-60
2022/03/08 03:35:18;;;;;;;20.55;11.95;;;1.00;99.90;;;;;;4998287;28;20050;-60
2022/03/08 03:37:45;;;;;;;17.48;10.48;;;1.00;99.80;;;;;;4997402;28;20046;-59
2022/03/08 03:40:12;;;;;;;15.18;9.93;;;0.90;99.90;;;;;;4998222;28;20046;-61
2022/03/08 03:42:39;;;;;;;24.23;11.73;;;1.00;99.90;;;;;;5014021;28;20059;-60
2022/03/08 03:45:06;;;;;;;25.40;12.65;;;0.90;99.90;;;;;;4997562;28;20584;-60
2022/03/08 03:47:33;;;;;;;22.58;11.65;;;0.90;99.90;;;;;;5014690;28;20073;-60
2022/03/08 03:50:00;;;;;;;26.65;11.73;;;1.00;99.90;;;;;;5014508;28;20082;-60
2022/03/08 03:52:29;;;;;;;22.02;11.25;;;0.90;99.90;;;;;;5014549;28;20045;-60
2022/03/08 03:54:56;;;;;;;29.55;11.95;;;0.90;99.90;;;;;;4991564;28;20054;-61
2022/03/08 03:57:23;;;;;;;21.92;11.40;;;0.90;99.90;;;;;;5012695;28;20074;-60
2022/03/08 03:59:49;;;;;;;23.38;11.68;;;0.90;99.90;;;;;;5013411;28;20053;-60
2022/03/08 04:02:16;;;;;;;21.90;12.05;;;0.90;99.90;;;;;;5011707;28;20046;-60
2022/03/08 04:04:43;;;;;;;21.30;11.55;;;0.80;99.90;;;;;;4990664;28;20109;-60
2022/03/08 04:07:10;;;;;;;22.83;12.00;;;0.80;99.90;;;;;;4995837;28;20050;-60
2022/03/08 04:09:37;;;;;;;23.17;13.13;;;0.80;99.90;;;;;;5014720;28;20038;-61
2022/03/08 04:12:04;;;;;;;25.02;11.82;;;0.80;99.90;;;;;;5016091;28;20046;-60
2022/03/08 04:14:31;;;;;;;21.73;11.82;;;0.80;99.90;;;;;;5001227;28;20341;-60
2022/03/08 04:16:59;;;;;;;21.75;11.23;;;0.80;99.90;;;;;;4999214;28;20046;-61
2022/03/08 04:19:26;;;;;;;24.50;12.23;;;0.80;99.90;;;;;;5015219;28;20049;-61
2022/03/08 04:21:53;;;;;;;22.42;12.60;;;0.80;99.90;;;;;;5010237;28;20050;-61
2022/03/08 04:24:20;;;;;;;15.15;10.20;;;0.80;99.90;;;;;;4983556;28;20038;-61
2022/03/08 04:26:47;;;;;;;22.92;12.15;;;0.80;99.90;;;;;;4998447;28;20046;-61
2022/03/08 04:29:14;;;;;;;21.80;12.35;;;0.80;99.90;;;;;;5014628;28;20078;-61
2022/03/08 04:31:41;;;;;;;20.95;12.43;;;0.80;99.90;;;;;;4997762;28;20045;-61
2022/03/08 04:34:07;;;;;;;21.88;11.55;;;0.80;99.90;;;;;;4996108;28;20050;-61
2022/03/08 04:36:34;;;;;;;24.08;12.63;;;0.80;99.90;;;;;;4995460;28;20054;-61
2022/03/08 04:39:01;;;;;;;20.45;12.52;;;0.80;99.90;;;;;;4996251;28;20051;-59
2022/03/08 04:41:28;;;;;;;21.95;11.98;;;0.80;99.90;;;;;;5011030;28;20046;-60
2022/03/08 04:43:55;;;;;;;20.35;12.35;;;0.80;99.90;;;;;;4993613;28;20051;-60
2022/03/08 04:46:21;;;;;;;24.50;12.95;;;0.80;99.90;;;;;;5012301;28;20050;-59
2022/03/08 04:48:48;;;;;;;26.42;13.75;;;0.70;99.90;;;;;;5012762;28;20051;-60
2022/03/08 04:51:15;;;;;;;27.50;13.25;;;0.70;99.90;;;;;;5011623;28;20046;-60
2022/03/08 04:53:42;;;;;;;22.48;13.25;;;0.70;99.90;;;;;;4995603;28;20112;-60
2022/03/08 04:56:09;;;;;;;26.73;14.23;;;0.70;99.90;;;;;;5012070;28;20174;-59
2022/03/08 04:58:35;;;;;;;23.45;12.40;;;0.70;99.90;;;;;;4995375;28;20030;-60
2022/03/08 05:01:02;;;;;;;25.92;13.15;;;0.70;99.90;;;;;;4990515;28;20042;-60
2022/03/08 05:03:29;;;;;;;30.73;13.63;;;0.80;99.90;;;;;;5012532;28;20046;-60
2022/03/08 05:05:56;;;;;;;23.50;12.65;;;0.80;99.90;;;;;;4995387;28;20085;-60
2022/03/08 05:08:24;;;;;;;24.15;13.82;;;0.80;99.90;;;;;;5016128;28;20034;-61
2022/03/08 05:10:50;;;;;;;24.45;13.75;;;0.80;99.90;;;;;;5015721;28;20046;-61
2022/03/08 05:13:17;;;;;;;23.40;12.65;;;0.90;99.90;;;;;;5016408;28;20073;-60
2022/03/08 05:15:48;;;;;;;24.90;13.75;;;0.80;99.90;;;;;;4999479;28;20051;-61
2022/03/08 05:18:16;;;;;;;25.95;14.75;;;0.90;99.90;;;;;;5015482;28;20042;-61
2022/03/08 05:20:43;;;;;;;31.25;13.95;;;0.90;99.90;;;;;;5014959;28;20038;-60
2022/03/08 05:23:10;;;;;;;24.40;13.85;;;0.90;99.90;;;;;;5014879;28;20050;-61
2022/03/08 05:25:37;;;;;;;24.80;13.93;;;0.90;99.90;;;;;;5015453;28;20077;-60
2022/03/08 05:28:04;;;;;;;30.08;14.82;;;0.90;99.90;;;;;;5014821;28;20230;-61
2022/03/08 05:30:31;;;;;;;23.20;13.15;;;1.00;99.90;;;;;;5014639;28;20027;-61
2022/03/08 05:32:57;;;;;;;28.42;12.68;;;1.00;99.90;;;;;;5013231;28;20053;-61
2022/03/08 05:35:24;;;;;;;27.50;14.55;;;1.00;99.90;;;;;;4995358;28;20034;-60
2022/03/08 05:37:51;;;;;;;30.33;13.30;;;1.00;99.90;;;;;;4997933;28;20053;-61
2022/03/08 05:40:20;;;;;;;26.52;13.57;;;1.00;99.90;;;;;;5014455;28;20064;-60
2022/03/08 05:42:47;;;;;;;26.88;15.07;;;1.10;99.90;;;;;;5002511;28;20050;-58
2022/03/08 05:45:15;;;;;;;26.27;14.23;;;1.10;99.90;;;;;;5015309;28;20078;-59
2022/03/08 05:47:41;;;;;;;26.70;14.52;;;1.10;99.90;;;;;;5014391;28;20106;-60
2022/03/08 05:50:09;;;;;;;25.85;14.32;;;1.10;99.90;;;;;;5013917;28;20046;-59
2022/03/08 05:52:36;;;;;;;26.08;13.18;;;1.10;99.90;;;;;;5013782;28;20085;-60
2022/03/08 05:55:04;;;;;;;28.17;14.70;;;1.10;99.90;;;;;;4986835;28;20050;-59
2022/03/08 05:57:30;;;;;;;24.42;13.70;;;1.20;99.90;;;;;;5013197;28;20089;-60
2022/03/08 05:59:57;;;;;;;30.00;15.65;;;1.20;99.90;;;;;;5013124;28;20046;-60
2022/03/08 06:02:24;;;;;;;27.60;15.13;;;1.20;99.90;;;;;;5012887;28;20051;-60
2022/03/08 06:04:52;;;;;;;31.33;15.13;;;1.30;99.90;;;;;;4999994;28;20053;-59
2022/03/08 06:07:21;;;;;;;29.83;16.50;;;1.30;99.90;;;;;;5013744;28;20061;-61
2022/03/08 06:09:48;;;;;;;26.83;15.45;;;1.40;99.90;;;;;;5012414;28;20042;-59
2022/03/08 06:12:16;;;;;;;28.23;15.68;;;1.50;99.90;;;;;;4996032;28;20162;-59
2022/03/08 06:14:42;;;;;;;30.20;15.70;;;1.60;99.90;;;;;;4984763;28;20037;-60
2022/03/08 06:17:09;;;;;;;31.30;16.38;;;1.60;99.90;;;;;;5012931;28;20054;-60
2022/03/08 06:19:36;;;;;;;29.27;14.85;;;1.60;99.90;;;;;;4991404;28;20066;-61
2022/03/08 06:22:05;;;;;;;31.35;16.90;;;1.60;99.90;;;;;;4997088;28;20042;-60
2022/03/08 06:24:31;;;;;;;27.67;15.10;;;1.60;99.90;;;;;;5013413;28;20026;-60
2022/03/08 06:26:58;;;;;;;27.48;15.82;;;1.70;99.90;;;;;;4993416;28;20047;-60
2022/03/08 06:29:25;;;;;;;26.90;14.82;;;1.60;99.90;;;;;;5007891;28;20061;-60
2022/03/08 06:31:52;;;;;;;35.40;16.40;;;1.70;99.90;;;;;;5013519;28;20022;-60
2022/03/08 06:34:19;;;;;;;27.15;15.98;;;1.70;99.90;;;;;;4995912;28;20054;-59
2022/03/08 06:36:46;;;;;;;28.30;14.75;;;1.70;99.90;;;;;;5011462;28;20113;-60
2022/03/08 06:39:13;;;;;;;31.83;17.63;;;1.70;99.90;;;;;;5003335;28;20042;-59
2022/03/08 06:41:42;;;;;;;26.15;15.13;;;1.70;99.90;;;;;;5006355;28;20027;-60
2022/03/08 06:44:09;;;;;;;28.33;15.32;;;1.70;99.90;;;;;;4998719;28;20097;-59
2022/03/08 06:46:38;;;;;;;28.02;14.85;;;1.80;99.90;;;;;;5015020;28;20074;-60
2022/03/08 06:49:05;;;;;;;27.63;14.45;;;1.80;99.90;;;;;;5014733;28;20046;-60
2022/03/08 06:51:32;;;;;;;29.67;15.23;;;1.80;99.90;;;;;;4997417;28;20084;-61
2022/03/08 06:53:59;;;;;;;32.15;16.80;;;1.80;99.90;;;;;;4998574;28;20508;-61
2022/03/08 06:56:26;;;;;;;34.40;16.70;;;1.90;99.90;;;;;;5015987;28;20073;-62
2022/03/08 06:58:53;;;;;;;29.27;15.80;;;1.90;99.90;;;;;;4998782;28;20070;-60
2022/03/08 07:01:20;;;;;;;34.35;17.55;;;1.90;99.90;;;;;;5014000;28;20109;-60
2022/03/08 07:03:48;;;;;;;28.90;16.67;;;2.00;99.90;;;;;;5013368;28;20061;-61
2022/03/08 07:06:15;;;;;;;38.00;18.25;;;2.00;99.90;;;;;;5012679;28;20082;-60
2022/03/08 07:08:41;;;;;;;25.92;14.52;;;2.00;99.90;;;;;;4996816;28;20046;-61
2022/03/08 07:11:09;;;;;;;31.63;17.40;;;2.10;99.90;;;;;;4995534;28;20073;-60
2022/03/08 07:13:36;;;;;;;30.38;16.80;;;2.00;99.90;;;;;;5013915;28;20074;-60
2022/03/08 07:16:03;;;;;;;34.08;17.55;;;2.10;99.90;;;;;;4993553;28;20460;-61
2022/03/08 07:18:31;;;;;;;26.90;15.27;;;2.10;99.90;;;;;;4996327;28;20125;-60
2022/03/08 07:21:00;;;;;;;31.77;16.02;;;2.10;99.90;;;;;;4967886;28;20065;-61
2022/03/08 07:23:27;;;;;;;30.50;16.52;;;2.20;99.90;;;;;;5005469;28;20043;-61
2022/03/08 07:25:54;;;;;;;32.92;16.90;;;2.20;99.90;;;;;;5013166;28;20069;-61
2022/03/08 07:28:20;;;;;;;32.83;16.13;;;2.20;99.90;;;;;;5013433;28;20046;-61
2022/03/08 07:31:03;;;;;;;28.13;17.30;;;2.20;99.90;;;;;;4997668;28;20046;-62
2022/03/08 07:33:31;;;;;;;30.98;15.85;;;2.30;99.90;;;;;;5011054;28;20046;-61
2022/03/08 07:35:58;;;;;;;34.10;15.45;;;2.30;99.90;;;;;;4992682;28;20082;-60
2022/03/08 07:38:25;;;;;;;31.77;17.42;;;2.30;99.90;;;;;;4990641;28;20050;-60
2022/03/08 07:40:52;;;;;;;31.20;16.90;;;2.40;99.90;;;;;;4991898;28;20050;-60
2022/03/08 07:43:18;;;;;;;36.20;16.70;;;2.40;99.90;;;;;;5005732;28;20049;-60
2022/03/08 07:45:45;;;;;;;25.00;15.27;;;2.50;99.90;;;;;;5011969;28;20053;-60
2022/03/08 07:48:12;;;;;;;32.47;17.02;;;2.50;99.90;;;;;;4977019;28;20478;-60
2022/03/08 07:50:39;;;;;;;28.75;17.75;;;2.60;99.90;;;;;;4994379;28;20109;-60
2022/03/08 07:53:06;;;;;;;35.08;18.58;;;2.60;99.90;;;;;;5011058;28;20256;-61
2022/03/08 07:55:34;;;;;;;26.63;15.73;;;2.60;99.90;;;;;;5013628;28;20069;-60
2022/03/08 07:58:01;;;;;;;32.85;17.08;;;2.80;99.90;;;;;;5015634;28;20102;-61
2022/03/08 08:00:29;;;;;;;34.63;18.95;;;2.80;99.90;;;;;;5016552;28;20114;-60
2022/03/08 08:02:56;;;;;;;34.95;17.83;;;2.90;99.90;;;;;;4977297;28;20050;-60
2022/03/08 08:05:23;;;;;;;27.70;15.35;;;3.00;99.90;;;;;;5014589;28;20126;-60
2022/03/08 08:07:50;;;;;;;37.97;18.63;;;3.10;99.90;;;;;;5000058;28;20256;-60
2022/03/08 08:10:17;;;;;;;32.67;17.42;;;3.10;99.90;;;;;;5017006;28;20053;-60
2022/03/08 08:12:45;;;;;;;34.25;17.92;;;3.10;99.90;;;;;;5017976;28;20077;-62
2022/03/08 08:15:12;;;;;;;38.78;17.05;;;3.20;99.90;;;;;;5018387;28;20026;-59
2022/03/08 08:17:39;;;;;;;32.85;15.82;;;3.20;99.90;;;;;;5018062;28;20046;-60
2022/03/08 08:20:08;;;;;;;28.98;16.38;;;3.30;99.90;;;;;;5001580;28;20054;-62
2022/03/08 08:22:36;;;;;;;35.63;17.52;;;3.30;99.90;;;;;;5018462;28;20026;-61
2022/03/08 08:25:04;;;;;;;47.35;17.27;;;3.40;99.90;;;;;;4988165;28;20043;-60
2022/03/08 08:27:31;;;;;;;34.58;17.58;;;3.50;99.90;;;;;;5015229;28;20042;-62
2022/03/08 08:29:58;;;;;;;32.78;16.15;;;3.50;99.90;;;;;;4996169;28;20062;-61
2022/03/08 08:32:25;;;;;;;28.45;15.55;;;3.60;99.90;;;;;;5017467;28;20069;-59
2022/03/08 08:34:52;;;;;;;31.90;15.68;;;3.60;99.90;;;;;;5004004;28;20061;-60
2022/03/08 08:37:19;;;;;;;30.42;17.08;;;3.70;99.90;;;;;;4984919;28;20109;-59
2022/03/08 08:39:45;;;;;;;34.08;16.45;;;3.80;99.90;;;;;;5016898;28;20034;-60
2022/03/08 08:42:12;;;;;;;28.00;15.38;;;3.80;99.90;;;;;;5017993;28;20052;-61
2022/03/08 08:44:44;;;;;;;30.40;17.27;;;3.80;99.90;;;;;;4991246;28;20038;-60
2022/03/08 08:47:12;;;;;;;32.35;17.05;;;3.90;99.90;;;;;;5000534;28;20034;-60
2022/03/08 08:49:39;;;;;;;35.58;17.33;;;4.00;99.90;;;;;;5017801;28;20027;-57
2022/03/08 08:52:06;;;;;;;33.72;18.17;;;4.00;99.90;;;;;;5001083;28;20516;-59
2022/03/08 08:54:33;;;;;;;31.73;17.95;;;4.10;99.90;;;;;;5000569;28;20069;-60
2022/03/08 08:56:59;;;;;;;31.80;18.25;;;4.20;99.90;;;;;;5000572;28;20066;-59
2022/03/08 08:59:26;;;;;;;39.63;17.13;;;4.20;99.90;;;;;;5016855;28;20037;-58
2022/03/08 09:01:53;;;;;;;36.47;17.67;;;4.30;99.90;;;;;;4998931;28;20030;-57
2022/03/08 09:04:20;;;;;;;30.55;17.33;;;4.40;99.90;;;;;;5000528;28;20038;-59
2022/03/08 09:06:47;;;;;;;34.70;17.75;;;4.70;99.90;;;;;;5017693;28;20030;-57
2022/03/08 09:09:15;;;;;;;33.33;17.63;;;5.00;99.90;;;;;;5017276;28;20059;-57
2022/03/08 09:11:42;;;;;;;31.05;17.58;;;5.30;99.90;;;;;;5000902;28;20043;-58
2022/03/08 09:14:09;;;;;;;34.15;16.45;;;5.60;99.90;;;;;;5000736;28;20038;-59
2022/03/08 09:16:36;;;;;;;33.03;18.08;;;5.80;99.90;;;;;;5011503;28;20038;-58
2022/03/08 09:19:03;;;;;;;28.95;16.75;;;6.10;99.20;;;;;;4998604;28;20106;-58
2022/03/08 09:21:30;;;;;;;25.17;16.05;;;6.20;99.60;;;;;;5000747;28;20070;-57
2022/03/08 09:23:57;;;;;;;30.73;17.08;;;6.40;99.20;;;;;;5017197;28;20042;-57
2022/03/08 09:26:24;;;;;;;33.05;15.93;;;6.70;99.10;;;;;;4996297;28;20101;-59
2022/03/08 09:28:50;;;;;;;26.52;17.45;;;6.80;98.80;;;;;;5017796;28;20108;-59
2022/03/08 09:31:17;;;;;;;39.67;16.92;;;6.90;98.70;;;;;;5000282;28;20038;-58
2022/03/08 09:33:44;;;;;;;31.70;17.80;;;6.80;98.40;;;;;;5017322;28;20044;-56
2022/03/08 09:36:11;;;;;;;32.78;16.42;;;6.60;98.60;;;;;;5005728;28;20030;-57
2022/03/08 09:38:38;;;;;;;27.88;15.82;;;6.50;98.70;;;;;;5000872;28;20054;-58
2022/03/08 09:41:05;;;;;;;34.92;18.25;;;6.40;98.80;;;;;;5016807;28;20068;-60
2022/03/08 09:43:35;;;;;;;31.85;18.27;;;6.40;98.50;;;;;;5017238;28;20030;-58
2022/03/08 09:46:03;;;;;;;31.27;16.38;;;6.30;98.10;;;;;;5017060;28;20046;-58
2022/03/08 09:48:30;;;;;;;29.80;16.83;;;6.20;98.70;;;;;;5017269;28;20042;-58
2022/03/08 09:51:03;;;;;;;31.25;16.40;;;6.20;98.60;;;;;;5000310;28;20058;-58
2022/03/08 09:53:31;;;;;;;37.88;20.10;;;6.30;98.50;;;;;;5017157;28;20041;-54
2022/03/08 09:55:59;;;;;;;31.25;17.92;;;6.20;98.50;;;;;;5004256;28;20262;-57
2022/03/08 09:58:31;;;;;;;28.48;17.50;;;6.20;98.70;;;;;;5000996;28;20066;-56
2022/03/08 10:01:00;;;;;;;32.03;18.27;;;6.20;98.60;;;;;;5016571;28;20038;-56
2022/03/08 10:03:32;;;;;;;36.08;17.90;;;6.20;98.90;;;;;;5016315;28;20089;-53
2022/03/08 10:05:59;;;;;;;31.23;17.63;;;6.30;98.90;;;;;;5017113;28;20024;-57
2022/03/08 10:08:27;;;;;;;38.47;19.25;;;6.40;98.80;;;;;;5017100;28;20057;-58
2022/03/08 10:11:01;;;;;;;33.58;17.85;;;6.40;98.80;;;;;;5016273;28;20037;-58
2022/03/08 10:13:49;;;;;;;35.42;16.80;;;6.40;98.70;;;;;;5013018;28;20026;-58
2022/03/08 10:16:26;;;;;;;35.50;17.95;;;6.40;98.80;;;;;;5015624;28;20971;-57
2022/03/08 10:18:55;;;;;;;35.75;18.40;;;6.50;98.30;;;;;;5006794;28;20042;-58
2022/03/08 10:21:43;;;;;;;29.98;17.45;;;6.50;98.80;;;;;;4998945;28;20090;-57
2022/03/08 10:24:21;;;;;;;28.80;17.75;;;6.50;97.60;;;;;;5016818;28;20097;-57
2022/03/08 10:27:02;;;;;;;26.38;16.63;;;6.60;98.40;;;;;;5016653;28;20023;-59
2022/03/08 10:29:36;;;;;;;28.17;16.42;;;6.70;98.20;;;;;;5016944;28;20050;-56
2022/03/08 10:32:03;;;;;;;;;;;6.70;98.30;;;;;;5000115;28;20030;-55
2022/03/08 10:34:30;;;;;;;29.52;16.83;;;6.70;97.30;;;;;;5016360;28;19966;-57
2022/03/08 10:37:02;;;;;;;32.90;17.90;;;6.80;98.40;;;;;;5016325;28;20061;-57
2022/03/08 10:39:29;;;;;;;26.80;17.33;;;6.90;97.90;;;;;;5016850;28;20026;-57
2022/03/08 10:41:57;;;;;;;30.58;17.52;;;6.90;97.90;;;;;;4999602;28;20046;-59
2022/03/08 10:44:38;;;;;;;28.10;16.55;;;7.00;97.90;;;;;;5016470;28;20088;-58
2022/03/08 10:47:09;;;;;;;31.17;17.08;;;7.00;97.90;;;;;;5016492;28;20053;-58
2022/03/08 10:49:48;;;;;;;27.20;16.30;;;7.10;98.10;;;;;;4999310;28;20042;-58
2022/03/08 10:52:15;;;;;;;30.30;17.83;;;7.10;97.70;;;;;;5016048;28;20034;-57
2022/03/08 10:54:41;;;;;;;37.58;17.90;;;7.20;98.00;;;;;;5016434;28;20056;-57
2022/03/08 10:57:13;;;;;;;30.55;17.70;;;7.20;98.00;;;;;;5015009;28;20038;-59
2022/03/08 11:00:00;;;;;;;37.00;17.48;;;7.30;97.90;;;;;;5014554;28;20042;-60
2022/03/08 11:02:26;;;;;;;31.23;18.45;;;7.40;97.90;;;;;;5016338;28;20054;-58
2022/03/08 11:05:09;;;;;;;25.23;16.75;;;7.40;97.40;;;;;;5015466;28;20030;-59
2022/03/08 11:07:36;;;;;;;32.45;17.15;;;7.40;96.70;;;;;;5016335;28;20069;-59
2022/03/08 11:10:09;;;;;;;31.00;17.50;;;7.50;97.50;;;;;;5016228;28;20034;-58
2022/03/08 11:12:37;;;;;;;30.45;19.15;;;7.50;97.30;;;;;;4999703;28;20043;-59
2022/03/08 11:15:08;;;;;;;31.90;16.45;;;7.60;97.40;;;;;;5015099;28;20065;-58
2022/03/08 11:17:38;;;;;;;28.17;16.52;;;7.60;97.10;;;;;;5015803;28;20057;-57
2022/03/08 11:20:07;;;;;;;28.63;17.35;;;7.70;96.50;;;;;;5015758;28;20065;-60
2022/03/08 11:22:34;;;;;;;32.00;18.23;;;7.70;96.60;;;;;;5016590;28;20073;-59
2022/03/08 11:25:00;;;;;;;27.40;15.57;;;7.70;96.60;;;;;;4999326;28;20086;-60
2022/03/08 11:27:27;;;;;;;28.67;17.05;;;7.80;96.90;;;;;;5016349;28;20062;-58
2022/03/08 11:29:54;;;;;;;30.85;16.95;;;7.90;96.20;;;;;;4999414;28;20058;-59
2022/03/08 11:32:30;;;;;;;30.27;17.80;;;7.90;95.90;;;;;;5018614;28;20057;-59
2022/03/08 11:35:01;;;;;;;29.40;17.30;;;7.90;96.10;;;;;;5002890;28;20074;-59
2022/03/08 11:37:28;;;;;;;34.53;18.58;;;8.00;96.10;;;;;;5003365;28;20053;-59
2022/03/08 11:40:14;;;;;;;27.40;17.15;;;8.00;96.10;;;;;;5019753;28;20046;-58
2022/03/08 11:42:44;;;;;;;25.10;15.68;;;8.10;95.00;;;;;;5020000;28;20062;-58
2022/03/08 11:45:12;;;;;;;26.17;16.83;;;8.30;96.20;;;;;;5002961;28;20030;-58
2022/03/08 11:47:56;;;;;;;25.98;15.90;;;8.40;96.00;;;;;;5003966;28;20042;-58
2022/03/08 11:50:31;;;;;;;27.42;16.67;;;8.50;95.70;;;;;;5002523;28;20030;-58
2022/03/08 11:53:05;;;;;;;26.77;15.52;;;8.50;95.10;;;;;;5019999;28;20034;-58
2022/03/08 11:55:50;;;;;;;25.75;15.20;;;8.60;94.30;;;;;;5019152;28;20030;-58
2022/03/08 11:58:20;;;;;;;32.30;15.25;;;8.60;94.60;;;;;;5019779;28;20057;-57
2022/03/08 12:00:57;;;;;;;31.40;16.35;;;8.70;95.20;;;;;;4991150;28;20038;-59
2022/03/08 12:03:24;;;;;;;31.33;16.33;;;8.70;94.10;;;;;;5019406;28;20073;-58
2022/03/08 12:05:58;;;;;;;35.58;17.35;;;8.80;95.30;;;;;;5017957;28;20054;-59
2022/03/08 12:08:26;;;;;;;28.95;17.17;;;8.80;95.20;;;;;;5019380;28;20089;-59
2022/03/08 12:10:58;;;;;;;35.30;17.80;;;8.90;95.20;;;;;;5018679;28;20069;-60
2022/03/08 12:13:40;;;;;;;;;;;9.00;95.20;;;;;;5005174;28;20053;-60
2022/03/08 12:16:08;;;;;;;31.27;15.30;;;9.00;92.80;;;;;;4995970;28;19981;-58
2022/03/08 12:18:42;;;;;;;30.10;15.85;;;9.10;94.90;;;;;;5014579;28;20038;-59
2022/03/08 12:21:15;;;;;;;34.28;19.25;;;9.10;94.10;;;;;;5001982;28;20034;-58
2022/03/08 12:24:10;;;;;;;28.23;16.63;;;9.20;93.90;;;;;;5019241;28;20038;-56
2022/03/08 12:26:58;;;;;;;33.33;18.20;;;9.20;93.40;;;;;;5003328;28;20038;-60
2022/03/08 12:29:58;;;;;;;30.52;17.13;;;9.20;93.00;;;;;;5018718;28;20058;-59
2022/03/08 12:32:29;;;;;;;30.77;16.67;;;9.30;93.80;;;;;;5018658;28;20034;-59
2022/03/08 12:34:58;;;;;;;29.75;18.27;;;9.30;93.80;;;;;;5018515;28;20098;-59
2022/03/08 12:37:53;;;;;;;28.77;17.23;;;9.30;94.50;;;;;;4988281;28;20045;-56
2022/03/08 12:40:20;;;;;;;26.88;15.82;;;9.30;92.80;;;;;;5019069;28;20046;-58
2022/03/08 12:43:00;;;;;;;28.70;17.70;;;9.40;94.50;;;;;;5018141;28;20050;-59
2022/03/08 12:45:32;;;;;;;32.40;16.45;;;9.50;93.30;;;;;;5018216;28;20140;-60